createdAt,value
2019-04-03T00:01:43.439Z,3.70
2019-04-03T00:04:10.874Z,5.17
2019-04-03T00:06:57.862Z,4.00
2019-04-03T00:09:25.241Z,4.07
2019-04-03T00:11:52.618Z,4.27
2019-04-03T00:14:23.035Z,7.40
2019-04-03T00:16:50.314Z,3.20
2019-04-03T00:19:18.152Z,2.50
2019-04-03T00:21:45.633Z,2.77
2019-04-03T00:24:32.477Z,3.57
2019-04-03T00:26:59.914Z,2.50
2019-04-03T00:29:27.598Z,1.93
2019-04-03T00:31:54.974Z,2.20
2019-04-03T00:34:23.523Z,2.20
2019-04-03T00:40:08.585Z,1.73
2019-04-03T00:42:38.142Z,1.90
2019-04-03T00:45:13.818Z,2.60
2019-04-03T00:47:55.386Z,3.37
2019-04-03T00:50:23.067Z,2.10
2019-04-03T00:52:50.389Z,2.70
2019-04-03T00:55:17.685Z,2.27
2019-04-03T00:57:45.230Z,2.40
2019-04-03T01:00:15.449Z,2.67
2019-04-03T01:02:42.990Z,2.90
2019-04-03T01:05:10.582Z,2.37
2019-04-03T01:07:37.963Z,2.70
2019-04-03T01:10:05.448Z,3.13
2019-04-03T01:12:32.733Z,2.93
2019-04-03T01:15:01.560Z,2.77
2019-04-03T01:17:29.262Z,3.40
2019-04-03T01:19:56.529Z,4.63
2019-04-03T01:22:24.119Z,4.97
2019-04-03T01:24:51.726Z,3.90
2019-04-03T01:27:19.029Z,4.07
2019-04-03T01:29:46.449Z,4.20
2019-04-03T01:32:34.951Z,4.73
2019-04-03T01:35:02.432Z,3.93
2019-04-03T01:37:32.408Z,4.10
2019-04-03T01:40:02.719Z,3.77
2019-04-03T01:42:30.019Z,4.37
2019-04-03T01:47:58.228Z,4.80
2019-04-03T01:50:25.280Z,6.13
2019-04-03T01:52:52.759Z,7.33
2019-04-03T01:55:20.093Z,7.83
2019-04-03T01:57:47.390Z,8.40
2019-04-03T02:00:14.688Z,10.30
2019-04-03T02:03:02.112Z,9.60
2019-04-03T02:05:29.834Z,9.73
2019-04-03T02:08:16.590Z,10.07
2019-04-03T02:10:43.875Z,9.90
2019-04-03T02:13:30.644Z,10.40
2019-04-03T02:16:17.670Z,10.70
2019-04-03T02:18:45.256Z,12.10
2019-04-03T02:21:12.537Z,12.07
2019-04-03T02:23:39.819Z,12.67
2019-04-03T02:26:07.318Z,14.00
2019-04-03T02:28:35.246Z,13.97
2019-04-03T02:31:02.703Z,11.80
2019-04-03T02:33:30.320Z,12.67
2019-04-03T02:35:57.799Z,16.70
2019-04-03T02:38:26.305Z,11.77
2019-04-03T02:40:57.174Z,12.40
2019-04-03T02:43:47.155Z,11.97
2019-04-03T02:46:18.125Z,11.93
2019-04-03T02:49:04.985Z,13.20
2019-04-03T02:51:32.393Z,12.37
2019-04-03T02:54:02.286Z,10.63
2019-04-03T02:56:31.214Z,13.53
2019-04-03T02:59:01.291Z,11.13
2019-04-03T03:01:51.733Z,12.33
2019-04-03T03:04:32.161Z,11.20
2019-04-03T03:07:05.026Z,10.87
2019-04-03T03:09:32.836Z,16.37
2019-04-03T03:12:00.259Z,12.60
2019-04-03T03:14:27.818Z,13.03
2019-04-03T03:16:55.654Z,11.43
2019-04-03T03:19:23.036Z,10.53
2019-04-03T03:21:50.328Z,12.23
2019-04-03T03:24:18.011Z,10.97
2019-04-03T03:26:45.457Z,11.10
2019-04-03T03:29:17.721Z,10.03
2019-04-03T03:32:06.348Z,9.50
2019-04-03T03:34:12.593Z,9.97
2019-04-03T03:36:41.531Z,9.97
2019-04-03T03:39:11.247Z,12.47
2019-04-03T03:41:38.715Z,11.40
2019-04-03T03:44:09.800Z,11.70
2019-04-03T03:46:55.113Z,15.27
2019-04-03T03:49:33.492Z,11.70
2019-04-03T03:52:04.021Z,10.77
2019-04-03T03:54:30.063Z,12.07
2019-04-03T03:56:57.619Z,9.43
2019-04-03T03:59:25.131Z,9.63
2019-04-03T04:01:52.846Z,9.80
2019-04-03T04:04:20.522Z,7.87
2019-04-03T04:06:47.951Z,6.40
2019-04-03T04:09:17.212Z,7.87
2019-04-03T04:11:44.409Z,12.37
2019-04-03T04:14:11.935Z,6.87
2019-04-03T04:16:39.737Z,12.40
2019-04-03T04:19:07.137Z,8.30
2019-04-03T04:21:34.403Z,9.17
2019-04-03T04:24:01.964Z,7.63
2019-04-03T04:26:50.330Z,8.53
2019-04-03T04:29:19.726Z,7.80
2019-04-03T04:31:47.298Z,13.73
2019-04-03T04:34:18.892Z,10.23
2019-04-03T04:37:06.416Z,8.60
2019-04-03T04:39:33.738Z,10.70
2019-04-03T04:42:20.600Z,10.57
2019-04-03T04:44:48.475Z,12.20
2019-04-03T04:47:15.789Z,12.40
2019-04-03T04:50:02.568Z,8.87
2019-04-03T04:52:30.028Z,12.43
2019-04-03T04:54:57.642Z,11.00
2019-04-03T04:57:25.533Z,8.70
2019-04-03T04:59:53.157Z,7.73
2019-04-03T05:02:21.289Z,9.73
2019-04-03T05:05:10.185Z,6.80
2019-04-03T05:10:36.885Z,8.40
2019-04-03T05:15:49.460Z,8.90
2019-04-03T05:18:16.817Z,8.97
2019-04-03T05:21:05.015Z,10.33
2019-04-03T05:23:32.452Z,10.37
2019-04-03T05:26:01.859Z,11.50
2019-04-03T05:28:29.199Z,12.60
2019-04-03T05:31:16.120Z,13.87
2019-04-03T05:33:43.661Z,11.30
2019-04-03T05:36:30.603Z,14.40
2019-04-03T05:38:58.225Z,11.97
2019-04-03T05:41:27.559Z,13.43
2019-04-03T05:44:14.531Z,13.87
2019-04-03T05:49:26.958Z,13.07
2019-04-03T05:51:54.617Z,14.40
2019-04-03T05:54:23.316Z,12.53
2019-04-03T05:56:51.795Z,12.17
2019-04-03T05:59:19.666Z,12.47
2019-04-03T06:02:14.962Z,15.67
2019-04-03T06:04:36.102Z,14.47
2019-04-03T06:07:05.705Z,11.40
2019-04-03T06:09:53.874Z,11.30
2019-04-03T06:12:22.110Z,13.57
2019-04-03T06:15:10.260Z,14.27
2019-04-03T06:17:39.186Z,13.57
2019-04-03T06:20:10.150Z,13.37
2019-04-03T06:22:49.893Z,13.90
2019-04-03T06:25:18.596Z,16.60
2019-04-03T06:28:05.487Z,14.07
2019-04-03T06:30:35.081Z,13.63
2019-04-03T06:33:02.676Z,12.30
2019-04-03T06:35:34.774Z,15.60
2019-04-03T06:38:01.943Z,15.13
2019-04-03T06:40:29.223Z,11.00
2019-04-03T06:42:56.546Z,12.13
2019-04-03T06:45:26.162Z,15.33
2019-04-03T06:47:53.368Z,12.80
2019-04-03T06:50:20.898Z,13.03
2019-04-03T06:52:52.563Z,11.67
2019-04-03T06:55:19.154Z,12.27
2019-04-03T06:58:00.144Z,11.23
2019-04-03T07:00:27.438Z,13.07
2019-04-03T07:02:57.762Z,11.43
2019-04-03T07:05:27.280Z,16.33
2019-04-03T07:07:54.542Z,11.40
2019-04-03T07:10:25.519Z,14.13
2019-04-03T07:12:51.282Z,11.70
2019-04-03T07:15:38.080Z,14.93
2019-04-03T07:18:06.559Z,12.67
2019-04-03T07:20:34.266Z,18.23
2019-04-03T07:23:01.629Z,12.33
2019-04-03T07:25:29.010Z,14.67
2019-04-03T07:27:56.358Z,12.03
2019-04-03T07:30:23.641Z,13.73
2019-04-03T07:32:51.247Z,14.13
2019-04-03T07:35:18.691Z,12.70
2019-04-03T07:37:46.050Z,13.47
2019-04-03T07:40:13.466Z,15.30
2019-04-03T07:42:41.055Z,14.73
2019-04-03T07:45:08.454Z,16.20
2019-04-03T07:47:35.977Z,12.30
2019-04-03T07:50:04.089Z,11.77
2019-04-03T07:52:31.578Z,15.57
2019-04-03T07:54:58.962Z,10.83
2019-04-03T07:57:26.874Z,10.73
2019-04-03T07:59:55.721Z,13.90
2019-04-03T08:02:23.178Z,14.00
2019-04-03T08:04:50.490Z,13.17
2019-04-03T08:07:17.899Z,12.77
2019-04-03T08:10:04.783Z,13.07
2019-04-03T08:12:34.549Z,13.87
2019-04-03T08:15:01.503Z,12.73
2019-04-03T08:17:29.058Z,16.53
2019-04-03T08:19:56.372Z,15.47
2019-04-03T08:22:23.741Z,17.23
2019-04-03T08:24:53.048Z,18.00
2019-04-03T08:27:22.663Z,15.83
2019-04-03T08:29:49.780Z,15.40
2019-04-03T08:32:17.339Z,17.37
2019-04-03T08:34:44.894Z,14.03
2019-04-03T08:37:12.437Z,14.70
2019-04-03T08:39:39.782Z,12.37
2019-04-03T08:42:07.114Z,13.47
2019-04-03T08:44:53.929Z,11.00
2019-04-03T08:47:21.229Z,11.63
2019-04-03T08:50:08.154Z,10.20
2019-04-03T08:52:37.140Z,12.13
2019-04-03T08:55:04.982Z,8.33
2019-04-03T08:57:32.446Z,9.77
2019-04-03T09:00:01.164Z,7.37
2019-04-03T09:02:28.825Z,8.37
2019-04-03T09:04:56.602Z,7.83
2019-04-03T09:07:24.937Z,7.00
2019-04-03T09:09:53.171Z,6.83
2019-04-03T09:12:21.007Z,8.63
2019-04-03T09:14:48.548Z,7.13
2019-04-03T09:17:35.614Z,9.90
2019-04-03T09:20:03.235Z,9.13
2019-04-03T09:22:30.511Z,8.53
2019-04-03T09:24:59.916Z,13.50
2019-04-03T09:27:27.336Z,16.57
2019-04-03T09:29:54.975Z,17.17
2019-04-03T09:32:23.424Z,17.83
2019-04-03T09:34:50.890Z,17.43
2019-04-03T09:37:18.532Z,17.47
2019-04-03T09:39:46.525Z,18.53
2019-04-03T09:42:13.922Z,13.97
2019-04-03T09:45:00.700Z,15.80
2019-04-03T09:47:28.070Z,14.37
2019-04-03T09:49:55.491Z,15.03
2019-04-03T09:52:24.000Z,13.07
2019-04-03T09:54:51.710Z,13.43
2019-04-03T09:57:19.319Z,13.17
2019-04-03T09:59:46.819Z,14.50
2019-04-03T10:02:14.093Z,12.37
2019-04-03T10:04:41.361Z,11.00
2019-04-03T10:07:08.678Z,13.47
2019-04-03T10:09:38.465Z,14.73
2019-04-03T10:12:05.460Z,10.73
2019-04-03T10:14:33.070Z,10.57
2019-04-03T10:17:00.328Z,8.83
2019-04-03T10:19:27.598Z,11.83
2019-04-03T10:21:55.249Z,13.10
2019-04-03T10:24:22.631Z,12.40
2019-04-03T10:27:11.223Z,12.23
2019-04-03T10:29:38.767Z,15.60
2019-04-03T10:32:06.094Z,12.17
2019-04-03T10:34:35.680Z,11.13
2019-04-03T10:37:02.702Z,7.47
2019-04-03T10:39:30.351Z,6.47
2019-04-03T10:42:17.125Z,6.83
2019-04-03T10:44:44.459Z,6.77
2019-04-03T10:47:11.896Z,6.90
2019-04-03T10:49:39.509Z,7.33
2019-04-03T10:52:07.442Z,4.27
2019-04-03T10:54:37.404Z,5.53
2019-04-03T10:57:06.728Z,3.70
2019-04-03T10:59:37.283Z,3.33
2019-04-03T11:02:06.247Z,5.97
2019-04-03T11:04:33.999Z,5.00
2019-04-03T11:07:01.410Z,3.23
2019-04-03T11:09:28.933Z,5.97
2019-04-03T11:11:56.420Z,5.30
2019-04-03T11:14:23.834Z,5.40
2019-04-03T11:16:52.603Z,5.67
2019-04-03T11:19:20.370Z,4.27
2019-04-03T11:21:47.734Z,4.83
2019-04-03T11:24:37.718Z,6.37
2019-04-03T11:29:48.644Z,4.83
2019-04-03T11:32:16.522Z,5.90
2019-04-03T11:34:44.115Z,9.23
2019-04-03T11:37:11.710Z,4.00
2019-04-03T11:40:03.871Z,11.77
2019-04-03T11:42:29.590Z,5.70
2019-04-03T11:44:57.345Z,5.57
2019-04-03T11:47:27.896Z,4.87
2019-04-03T11:49:55.568Z,6.83
2019-04-03T11:52:23.369Z,3.80
2019-04-03T11:54:52.815Z,4.03
2019-04-03T11:57:20.159Z,2.90
2019-04-03T11:59:47.893Z,2.10
2019-04-03T12:02:17.435Z,2.20
2019-04-03T12:04:48.082Z,1.83
2019-04-03T12:07:15.417Z,4.80
2019-04-03T12:09:42.833Z,2.87
2019-04-03T12:12:10.872Z,1.87
2019-04-03T12:14:41.255Z,1.80
2019-04-03T12:17:29.297Z,1.60
2019-04-03T12:20:17.272Z,1.30
2019-04-03T12:22:44.894Z,2.43
2019-04-03T12:25:12.169Z,1.60
2019-04-03T12:27:40.930Z,1.60
2019-04-03T12:30:08.550Z,2.07
2019-04-03T12:32:43.478Z,2.20
2019-04-03T12:35:09.796Z,1.93
2019-04-03T12:37:37.378Z,1.70
2019-04-03T12:40:05.519Z,1.60
2019-04-03T12:42:35.718Z,2.07
2019-04-03T12:45:24.239Z,2.90
2019-04-03T12:48:11.248Z,2.17
2019-04-03T12:50:40.106Z,2.53
2019-04-03T12:53:07.494Z,2.30
2019-04-03T12:55:34.949Z,2.10
2019-04-03T12:58:05.029Z,2.50
2019-04-03T13:00:31.848Z,3.03
2019-04-03T13:02:59.155Z,2.33
2019-04-03T13:05:26.595Z,2.63
2019-04-03T13:07:55.672Z,2.53
2019-04-03T13:10:23.356Z,2.93
2019-04-03T13:12:50.836Z,2.37
2019-04-03T13:15:21.660Z,2.57
2019-04-03T13:18:08.764Z,2.00
2019-04-03T13:20:37.456Z,2.50
2019-04-03T13:25:54.530Z,3.47
2019-04-03T13:28:22.226Z,3.27
2019-04-03T13:30:49.833Z,3.03
2019-04-03T13:33:17.896Z,3.37
2019-04-03T13:35:47.225Z,2.90
2019-04-03T13:38:16.781Z,4.10
2019-04-03T13:40:44.076Z,3.13
2019-04-03T13:43:30.953Z,2.60
2019-04-03T13:45:58.269Z,5.40
2019-04-03T13:48:28.591Z,2.93
2019-04-03T13:50:57.425Z,2.20
2019-04-03T13:53:28.762Z,4.27
2019-04-03T13:55:56.248Z,2.80
2019-04-03T13:58:23.542Z,2.60
2019-04-03T14:00:58.970Z,2.77
2019-04-03T14:03:20.326Z,3.27
2019-04-03T14:05:47.907Z,2.83
2019-04-03T14:08:21.004Z,3.00
2019-04-03T14:11:08.380Z,3.43
2019-04-03T14:13:36.087Z,2.63
2019-04-03T14:16:03.788Z,2.77
2019-04-03T14:18:31.186Z,2.90
2019-04-03T14:20:59.045Z,5.23
2019-04-03T14:23:28.043Z,4.93
2019-04-03T14:26:04.108Z,3.07
2019-04-03T14:28:26.616Z,2.80
2019-04-03T14:30:54.194Z,2.93
2019-04-03T14:33:22.986Z,3.20
2019-04-03T14:35:53.953Z,3.43
2019-04-03T14:38:21.723Z,3.60
2019-04-03T14:40:52.046Z,4.10
2019-04-03T14:43:21.930Z,3.17
2019-04-03T14:45:48.525Z,3.20
2019-04-03T14:48:16.100Z,3.33
2019-04-03T14:50:43.671Z,3.83
2019-04-03T14:53:11.592Z,3.40
2019-04-03T14:55:47.103Z,4.53
2019-04-03T14:58:29.950Z,5.03
2019-04-03T15:01:20.579Z,4.40
2019-04-03T15:04:01.741Z,5.10
2019-04-03T15:06:31.065Z,8.97
2019-04-03T15:08:58.395Z,6.40
2019-04-03T15:11:26.673Z,5.47
2019-04-03T15:13:55.426Z,5.60
2019-04-03T15:16:23.234Z,5.70
2019-04-03T15:18:52.510Z,6.23
2019-04-03T15:21:24.384Z,5.97
2019-04-03T15:23:52.356Z,5.67
2019-04-03T15:26:22.216Z,5.23
2019-04-03T15:28:49.131Z,5.50
2019-04-03T15:31:20.136Z,6.10
2019-04-03T15:33:48.114Z,5.23
2019-04-03T15:36:18.282Z,7.23
2019-04-03T15:38:48.087Z,5.57
2019-04-03T15:41:18.558Z,4.33
2019-04-03T15:43:47.045Z,4.10
2019-04-03T15:46:15.433Z,4.40
2019-04-03T15:48:44.557Z,5.60
2019-04-03T15:51:12.026Z,3.70
2019-04-03T15:53:39.414Z,4.90
2019-04-03T15:56:06.845Z,3.93
2019-04-03T15:58:34.410Z,4.23
2019-04-03T16:01:01.728Z,6.37
2019-04-03T16:03:51.186Z,4.27
2019-04-03T16:06:18.927Z,5.17
2019-04-03T16:08:47.890Z,5.57
2019-04-03T16:11:17.181Z,5.47
2019-04-03T16:13:46.889Z,3.87
2019-04-03T16:16:15.350Z,5.50
2019-04-03T16:18:48.328Z,5.77
2019-04-03T16:21:17.662Z,5.17
2019-04-03T16:23:48.121Z,6.30
2019-04-03T16:26:15.878Z,5.20
2019-04-03T16:28:43.455Z,4.87
2019-04-03T16:31:11.561Z,3.73
2019-04-03T16:33:39.003Z,4.10
2019-04-03T16:36:06.905Z,3.83
2019-04-03T16:38:42.549Z,4.23
2019-04-03T16:41:11.604Z,3.87
2019-04-03T16:43:39.230Z,4.07
2019-04-03T16:46:10.221Z,3.37
2019-04-03T16:48:55.618Z,3.27
2019-04-03T16:51:22.991Z,5.70
2019-04-03T16:53:50.583Z,3.13
2019-04-03T16:56:18.968Z,2.97
2019-04-03T16:58:46.508Z,3.07
2019-04-03T17:01:16.329Z,3.17
2019-04-03T17:03:46.549Z,4.07
2019-04-03T17:06:15.885Z,4.40
2019-04-03T17:09:04.802Z,4.30
2019-04-03T17:11:32.186Z,2.80
2019-04-03T17:13:59.474Z,3.97
2019-04-03T17:16:27.410Z,3.83
2019-04-03T17:18:55.019Z,2.80
2019-04-03T17:21:22.686Z,3.90
2019-04-03T17:23:50.093Z,6.30
2019-04-03T17:26:17.759Z,4.30
2019-04-03T17:28:45.608Z,6.23
2019-04-03T17:31:13.214Z,3.90
2019-04-03T17:33:40.523Z,4.23
2019-04-03T17:36:07.999Z,3.50
2019-04-03T17:38:35.792Z,4.40
2019-04-03T17:41:05.056Z,2.83
2019-04-03T17:43:32.608Z,4.77
2019-04-03T17:45:59.934Z,2.93
2019-04-03T17:48:46.683Z,2.97
2019-04-03T17:51:15.857Z,4.77
2019-04-03T17:53:43.162Z,3.70
2019-04-03T17:56:12.344Z,3.40
2019-04-03T17:58:40.015Z,2.60
2019-04-03T18:01:07.303Z,3.23
2019-04-03T18:03:34.614Z,2.73
2019-04-03T18:06:02.037Z,4.37
2019-04-03T18:08:33.135Z,4.57
2019-04-03T18:11:02.522Z,3.20
2019-04-03T18:13:31.827Z,4.43
2019-04-03T18:15:59.630Z,3.63
2019-04-03T18:18:27.023Z,3.50
2019-04-03T18:20:54.370Z,3.97
2019-04-03T18:23:22.262Z,3.20
2019-04-03T18:25:50.010Z,3.83
2019-04-03T18:28:17.491Z,3.60
2019-04-03T18:30:44.755Z,4.40
2019-04-03T18:33:31.510Z,4.73
2019-04-03T18:35:58.793Z,3.80
2019-04-03T18:38:26.090Z,3.90
2019-04-03T18:40:53.452Z,3.40
2019-04-03T18:43:21.989Z,5.00
2019-04-03T18:45:49.776Z,3.30
2019-04-03T18:48:18.947Z,4.17
2019-04-03T18:50:46.615Z,3.33
2019-04-03T18:53:14.928Z,3.30
2019-04-03T18:55:44.733Z,4.30
2019-04-03T18:58:12.381Z,3.03
2019-04-03T19:00:40.214Z,3.43
2019-04-03T19:03:07.720Z,3.93
2019-04-03T19:05:35.042Z,3.23
2019-04-03T19:08:12.415Z,3.13
2019-04-03T19:10:31.860Z,3.53
2019-04-03T19:12:59.337Z,4.50
2019-04-03T19:15:26.680Z,3.20
2019-04-03T19:17:59.839Z,3.07
2019-04-03T19:20:23.654Z,2.60
2019-04-03T19:23:01.928Z,3.83
2019-04-03T19:25:20.362Z,3.20
2019-04-03T19:27:49.780Z,2.60
2019-04-03T19:30:17.018Z,2.67
2019-04-03T19:32:44.494Z,2.47
2019-04-03T19:35:11.910Z,3.90
2019-04-03T19:37:44.764Z,3.10
2019-04-03T19:40:14.136Z,3.50
2019-04-03T19:42:50.700Z,4.00
2019-04-03T19:45:37.528Z,4.70
2019-04-03T19:48:05.092Z,3.17
2019-04-03T19:50:32.582Z,4.50
2019-04-03T19:53:00.083Z,3.90
2019-04-03T19:55:28.480Z,4.03
2019-04-03T19:57:57.481Z,4.27
2019-04-03T20:00:25.000Z,4.83
2019-04-03T20:02:52.276Z,4.17
2019-04-03T20:05:19.698Z,4.80
2019-04-03T20:07:46.980Z,4.60
2019-04-03T20:10:14.303Z,4.30
2019-04-03T20:12:42.018Z,5.03
2019-04-03T20:15:29.195Z,5.60
2019-04-03T20:17:56.743Z,5.33
2019-04-03T20:20:24.241Z,5.73
2019-04-03T20:22:51.547Z,4.33
2019-04-03T20:25:18.852Z,5.23
2019-04-03T20:28:06.358Z,5.90
2019-04-03T20:30:33.974Z,5.17
2019-04-03T20:33:01.451Z,5.23
2019-04-03T20:35:28.878Z,6.57
2019-04-03T20:37:57.137Z,4.30
2019-04-03T20:40:46.484Z,4.90
2019-04-03T20:43:13.975Z,5.13
2019-04-03T20:45:41.272Z,4.73
2019-04-03T20:48:08.587Z,5.10
2019-04-03T20:50:38.064Z,5.00
2019-04-03T20:53:25.259Z,5.70
2019-04-03T20:55:52.986Z,5.67
2019-04-03T20:58:20.369Z,3.77
2019-04-03T21:00:49.855Z,5.93
2019-04-03T21:03:17.185Z,4.00
2019-04-03T21:06:04.267Z,4.50
2019-04-03T21:08:31.838Z,4.30
2019-04-03T21:11:01.964Z,4.73
2019-04-03T21:13:28.752Z,4.57
2019-04-03T21:15:56.149Z,5.53
2019-04-03T21:18:42.919Z,6.20
2019-04-03T21:21:10.204Z,6.43
2019-04-03T21:23:39.103Z,6.47
2019-04-03T21:26:07.376Z,10.03
2019-04-03T21:28:35.141Z,6.23
2019-04-03T21:31:02.414Z,6.73
2019-04-03T21:33:30.753Z,6.10
2019-04-03T21:36:18.394Z,6.50
2019-04-03T21:38:45.930Z,7.13
2019-04-03T21:41:13.362Z,7.67
2019-04-03T21:43:40.667Z,7.37
2019-04-03T21:46:10.878Z,8.97
2019-04-03T21:48:58.029Z,7.90
2019-04-03T21:51:25.606Z,9.57
2019-04-03T21:53:55.948Z,7.03
2019-04-03T21:56:22.467Z,8.70
2019-04-03T21:58:50.257Z,8.27
2019-04-03T22:01:25.909Z,8.40
2019-04-03T22:03:53.326Z,9.83
2019-04-03T22:06:20.779Z,11.27
2019-04-03T22:08:48.169Z,10.20
2019-04-03T22:11:18.296Z,9.93
2019-04-03T22:13:58.856Z,9.87
2019-04-03T22:16:26.471Z,10.73
2019-04-03T22:18:54.832Z,9.37
2019-04-03T22:21:23.100Z,11.07
2019-04-03T22:23:50.443Z,11.43
2019-04-03T22:26:17.715Z,10.53
2019-04-03T22:28:46.489Z,10.47
2019-04-03T22:31:14.126Z,11.83
2019-04-03T22:33:41.410Z,11.60
2019-04-03T22:36:08.738Z,11.13
2019-04-03T22:38:37.167Z,10.53
2019-04-03T22:41:05.041Z,11.33
2019-04-03T22:43:32.317Z,12.07
2019-04-03T22:45:59.659Z,11.10
2019-04-03T22:48:27.682Z,13.27
2019-04-03T22:50:55.125Z,11.40
2019-04-03T22:53:28.191Z,12.03
2019-04-03T22:55:55.462Z,11.57
2019-04-03T22:58:22.878Z,12.57
2019-04-03T23:00:50.347Z,10.87
2019-04-03T23:03:17.602Z,11.90
2019-04-03T23:05:47.715Z,13.80
2019-04-03T23:08:14.245Z,10.67
2019-04-03T23:10:41.678Z,12.73
2019-04-03T23:13:08.943Z,12.90
2019-04-03T23:15:36.234Z,11.20
2019-04-03T23:18:03.666Z,13.30
2019-04-03T23:20:31.305Z,11.73
2019-04-03T23:22:58.807Z,13.47
2019-04-03T23:25:26.069Z,12.17
2019-04-03T23:27:53.357Z,12.30
2019-04-03T23:30:20.655Z,12.27
2019-04-03T23:32:47.934Z,13.30
2019-04-03T23:35:15.432Z,12.47
2019-04-03T23:37:43.114Z,14.00
2019-04-03T23:40:10.418Z,13.40
2019-04-03T23:42:38.330Z,13.37
2019-04-03T23:45:06.563Z,14.33
2019-04-03T23:47:34.002Z,13.33
2019-04-03T23:50:01.278Z,12.23
2019-04-03T23:52:29.981Z,15.10
2019-04-03T23:54:57.955Z,13.00
2019-04-03T23:57:25.678Z,14.97
2019-04-03T23:59:52.986Z,14.47
